createdAt,value
2019-03-27T00:03:00.272Z,-1.40
2019-03-27T00:06:24.003Z,-1.40
2019-03-27T00:09:47.921Z,-1.50
2019-03-27T00:13:11.677Z,-1.50
2019-03-27T00:16:35.727Z,-1.50
2019-03-27T00:19:59.546Z,-1.60
2019-03-27T00:23:23.371Z,-1.60
2019-03-27T00:26:47.247Z,-1.70
2019-03-27T00:30:11.342Z,-1.70
2019-03-27T00:33:35.091Z,-1.70
2019-03-27T00:36:58.867Z,-1.80
2019-03-27T00:40:22.683Z,-1.70
2019-03-27T00:43:46.559Z,-1.80
2019-03-27T00:47:10.432Z,-1.80
2019-03-27T00:50:34.326Z,-1.80
2019-03-27T00:53:58.095Z,-1.90
2019-03-27T00:57:22.074Z,-1.90
2019-03-27T01:00:48.779Z,-1.90
2019-03-27T01:04:12.546Z,-1.90
2019-03-27T01:07:36.471Z,-1.90
2019-03-27T01:11:00.211Z,-2.00
2019-03-27T01:14:24.694Z,-2.00
2019-03-27T01:17:48.571Z,-2.00
2019-03-27T01:21:12.519Z,-2.10
2019-03-27T01:24:36.418Z,-2.20
2019-03-27T01:28:00.301Z,-2.20
2019-03-27T01:31:24.068Z,-2.10
2019-03-27T01:34:47.871Z,-2.10
2019-03-27T01:38:11.699Z,-2.10
2019-03-27T01:41:36.252Z,-2.10
2019-03-27T01:44:59.958Z,-2.20
2019-03-27T01:48:23.758Z,-2.20
2019-03-27T01:51:47.562Z,-2.30
2019-03-27T01:55:11.433Z,-2.20
2019-03-27T01:58:35.460Z,-2.20
2019-03-27T02:01:59.328Z,-2.20
2019-03-27T02:05:23.208Z,-2.30
2019-03-27T02:08:46.943Z,-2.40
2019-03-27T02:12:10.832Z,-2.50
2019-03-27T02:15:34.748Z,-2.50
2019-03-27T02:18:59.481Z,-2.50
2019-03-27T02:22:23.388Z,-2.60
2019-03-27T02:25:47.174Z,-2.50
2019-03-27T02:29:10.974Z,-2.60
2019-03-27T02:32:34.961Z,-2.50
2019-03-27T02:35:58.777Z,-2.60
2019-03-27T02:39:22.685Z,-2.50
2019-03-27T02:42:46.579Z,-2.60
2019-03-27T02:46:23.925Z,-2.60
2019-03-27T02:49:35.951Z,-2.50
2019-03-27T02:52:59.761Z,-2.50
2019-03-27T02:56:23.613Z,-2.40
2019-03-27T02:59:47.445Z,-2.40
2019-03-27T03:03:11.458Z,-2.50
2019-03-27T03:06:35.384Z,-2.50
2019-03-27T03:09:59.202Z,-2.50
2019-03-27T03:13:23.068Z,-2.50
2019-03-27T03:16:46.914Z,-2.40
2019-03-27T03:20:11.141Z,-2.40
2019-03-27T03:23:35.082Z,-2.40
2019-03-27T03:26:58.807Z,-2.40
2019-03-27T03:30:22.697Z,-2.50
2019-03-27T03:33:46.417Z,-2.50
2019-03-27T03:37:10.506Z,-2.50
2019-03-27T03:40:35.188Z,-2.50
2019-03-27T03:43:58.980Z,-2.40
2019-03-27T03:47:22.797Z,-2.50
2019-03-27T03:50:46.566Z,-2.40
2019-03-27T03:54:10.924Z,-2.50
2019-03-27T03:57:37.178Z,-2.60
2019-03-27T04:01:01.699Z,-2.60
2019-03-27T04:04:26.163Z,-2.60
2019-03-27T04:07:49.937Z,-2.60
2019-03-27T04:11:13.714Z,-2.60
2019-03-27T04:14:37.425Z,-2.60
2019-03-27T04:18:01.154Z,-2.60
2019-03-27T04:21:27.010Z,-2.60
2019-03-27T04:24:50.946Z,-2.70
2019-03-27T04:28:14.693Z,-2.70
2019-03-27T04:31:38.580Z,-2.80
2019-03-27T04:35:02.333Z,-2.80
2019-03-27T04:38:26.337Z,-2.80
2019-03-27T04:41:50.072Z,-2.70
2019-03-27T04:45:15.691Z,-2.70
2019-03-27T04:48:39.497Z,-2.70
2019-03-27T04:52:03.247Z,-2.70
2019-03-27T04:55:26.973Z,-2.60
2019-03-27T04:58:50.831Z,-2.50
2019-03-27T05:02:14.666Z,-2.30
2019-03-27T05:05:38.838Z,-2.10
2019-03-27T05:09:02.772Z,-1.90
2019-03-27T05:12:26.642Z,-1.60
2019-03-27T05:15:50.451Z,-1.30
2019-03-27T05:19:14.285Z,-0.90
2019-03-27T05:22:38.164Z,-0.50
2019-03-27T05:26:01.887Z,0.00
2019-03-27T05:29:25.671Z,0.70
2019-03-27T05:32:49.392Z,1.80
2019-03-27T05:36:13.527Z,4.10
2019-03-27T05:39:37.264Z,7.40
2019-03-27T05:43:03.064Z,8.50
2019-03-27T05:46:26.957Z,10.10
2019-03-27T05:49:50.863Z,12.20
2019-03-27T05:53:14.833Z,13.60
2019-03-27T05:56:38.854Z,14.70
2019-03-27T06:00:02.822Z,15.50
2019-03-27T06:03:26.828Z,16.00
2019-03-27T06:06:50.812Z,17.30
2019-03-27T06:10:16.314Z,18.20
2019-03-27T06:13:40.414Z,18.90
2019-03-27T06:17:04.117Z,20.50
2019-03-27T06:20:28.319Z,20.70
2019-03-27T06:23:52.156Z,21.00
2019-03-27T06:27:15.893Z,20.60
2019-03-27T06:30:39.810Z,19.90
2019-03-27T06:34:03.659Z,19.50
2019-03-27T06:37:27.645Z,20.60
2019-03-27T06:40:52.648Z,20.80
2019-03-27T06:44:16.419Z,21.80
2019-03-27T06:47:40.306Z,20.90
2019-03-27T06:51:07.087Z,20.40
2019-03-27T06:54:31.046Z,21.90
2019-03-27T06:57:54.884Z,22.10
2019-03-27T07:01:18.919Z,21.60
2019-03-27T07:04:42.772Z,21.90
2019-03-27T07:08:06.859Z,23.30
2019-03-27T07:11:30.748Z,24.30
2019-03-27T07:14:54.653Z,24.20
2019-03-27T07:18:18.422Z,23.70
2019-03-27T07:21:42.203Z,24.20
2019-03-27T07:25:08.484Z,23.20
2019-03-27T07:28:32.344Z,23.00
2019-03-27T07:31:56.179Z,23.00
2019-03-27T07:35:20.096Z,22.90
2019-03-27T07:38:44.084Z,23.60
2019-03-27T07:42:07.823Z,24.70
2019-03-27T07:45:31.626Z,23.30
2019-03-27T07:48:55.428Z,22.70
2019-03-27T07:52:19.358Z,23.20
2019-03-27T07:55:43.191Z,23.50
2019-03-27T07:59:07.046Z,24.10
2019-03-27T08:02:30.938Z,25.70
2019-03-27T08:05:54.794Z,26.00
2019-03-27T08:09:18.669Z,25.40
2019-03-27T08:12:42.542Z,23.30
2019-03-27T08:16:06.370Z,21.70
2019-03-27T08:19:30.157Z,19.90
2019-03-27T08:22:54.094Z,22.10
2019-03-27T08:26:17.932Z,22.40
2019-03-27T08:29:41.732Z,21.50
2019-03-27T08:33:05.594Z,20.70
2019-03-27T08:36:29.848Z,20.10
2019-03-27T08:39:53.696Z,20.80
2019-03-27T08:43:21.957Z,22.40
2019-03-27T08:46:42.899Z,23.00
2019-03-27T08:50:15.884Z,22.70
2019-03-27T08:53:39.721Z,22.90
2019-03-27T08:57:03.536Z,23.60
2019-03-27T09:00:51.081Z,23.30
2019-03-27T09:04:15.096Z,25.10
2019-03-27T09:07:38.941Z,23.60
2019-03-27T09:11:04.644Z,24.30
2019-03-27T09:14:28.375Z,23.60
2019-03-27T09:17:52.149Z,24.90
2019-03-27T09:21:16.117Z,25.30
2019-03-27T09:24:39.854Z,25.40
2019-03-27T09:28:03.667Z,22.80
2019-03-27T09:31:27.524Z,22.00
2019-03-27T09:34:51.332Z,23.40
2019-03-27T09:38:15.297Z,24.50
2019-03-27T09:41:39.101Z,22.70
2019-03-27T09:45:03.067Z,20.70
2019-03-27T09:48:26.937Z,19.50
2019-03-27T09:51:50.938Z,19.40
2019-03-27T09:55:14.809Z,18.90
2019-03-27T09:58:38.681Z,18.20
2019-03-27T10:02:02.585Z,14.60
2019-03-27T10:05:26.364Z,17.20
2019-03-27T10:08:50.194Z,19.40
2019-03-27T10:12:13.978Z,20.70
2019-03-27T10:15:37.694Z,21.20
2019-03-27T10:19:01.598Z,20.30
2019-03-27T10:22:25.502Z,19.90
2019-03-27T10:25:49.354Z,19.10
2019-03-27T10:29:13.347Z,19.90
2019-03-27T10:32:37.384Z,21.80
2019-03-27T10:36:01.182Z,23.40
2019-03-27T10:39:25.069Z,24.10
2019-03-27T10:42:48.900Z,21.00
2019-03-27T10:46:12.912Z,21.00
2019-03-27T10:49:36.705Z,21.00
2019-03-27T10:53:00.572Z,20.80
2019-03-27T10:56:24.488Z,20.20
2019-03-27T10:59:48.314Z,20.60
2019-03-27T11:03:12.263Z,21.80
2019-03-27T11:06:36.036Z,20.30
2019-03-27T11:09:59.808Z,21.80
2019-03-27T11:13:23.651Z,22.80
2019-03-27T11:16:47.419Z,23.10
2019-03-27T11:20:12.839Z,23.80
2019-03-27T11:23:36.659Z,24.60
2019-03-27T11:27:00.553Z,23.30
2019-03-27T11:30:30.256Z,21.60
2019-03-27T11:33:54.029Z,22.20
2019-03-27T11:37:17.901Z,23.30
2019-03-27T11:40:41.667Z,23.70
2019-03-27T11:44:05.778Z,23.00
2019-03-27T11:47:29.634Z,22.60
2019-03-27T11:50:53.394Z,21.30
2019-03-27T11:54:17.225Z,22.10
2019-03-27T11:57:41.178Z,22.80
2019-03-27T12:01:05.058Z,23.50
2019-03-27T12:04:28.938Z,22.30
2019-03-27T12:07:52.809Z,21.70
2019-03-27T12:11:16.586Z,19.80
2019-03-27T12:14:40.374Z,20.30
2019-03-27T12:18:04.394Z,21.90
2019-03-27T12:21:28.376Z,21.00
2019-03-27T12:24:52.351Z,18.10
2019-03-27T12:28:16.199Z,18.50
2019-03-27T12:31:40.012Z,18.60
2019-03-27T12:35:04.554Z,17.30
2019-03-27T12:38:28.324Z,18.20
2019-03-27T12:41:52.234Z,18.30
2019-03-27T12:45:16.005Z,18.10
2019-03-27T12:48:39.802Z,17.80
2019-03-27T12:52:05.473Z,17.30
2019-03-27T12:55:29.143Z,17.50
2019-03-27T12:58:53.114Z,17.60
2019-03-27T13:02:16.918Z,16.60
2019-03-27T13:05:40.719Z,16.10
2019-03-27T13:09:06.725Z,16.30
2019-03-27T13:12:30.486Z,16.10
2019-03-27T13:15:54.311Z,16.00
2019-03-27T13:19:18.235Z,16.00
2019-03-27T13:22:42.127Z,15.30
2019-03-27T13:26:05.941Z,14.20
2019-03-27T13:29:29.892Z,13.80
2019-03-27T13:32:54.040Z,13.60
2019-03-27T13:36:17.912Z,13.90
2019-03-27T13:39:41.678Z,13.70
2019-03-27T13:43:05.577Z,13.70
2019-03-27T13:46:29.763Z,13.40
2019-03-27T13:49:53.849Z,13.50
2019-03-27T13:53:17.669Z,13.60
2019-03-27T13:56:41.614Z,13.90
2019-03-27T14:00:08.996Z,13.90
2019-03-27T14:03:33.496Z,13.50
2019-03-27T14:06:57.686Z,13.00
2019-03-27T14:10:24.434Z,12.80
2019-03-27T14:13:48.234Z,12.70
2019-03-27T14:17:15.065Z,12.60
2019-03-27T14:20:40.002Z,12.40
2019-03-27T14:24:06.778Z,12.50
2019-03-27T14:27:30.573Z,12.50
2019-03-27T14:30:56.345Z,12.20
2019-03-27T14:34:20.210Z,12.10
2019-03-27T14:37:44.083Z,12.00
2019-03-27T14:41:07.891Z,11.70
2019-03-27T14:44:31.855Z,11.60
2019-03-27T14:47:56.139Z,11.40
2019-03-27T14:51:20.036Z,11.30
2019-03-27T14:54:43.812Z,10.90
2019-03-27T14:58:07.838Z,10.80
2019-03-27T15:01:31.885Z,10.90
2019-03-27T15:04:56.219Z,10.80
2019-03-27T15:08:20.166Z,10.70
2019-03-27T15:11:46.027Z,10.50
2019-03-27T15:15:14.903Z,10.20
2019-03-27T15:18:38.949Z,9.90
2019-03-27T15:22:03.172Z,9.80
2019-03-27T15:25:27.144Z,9.60
2019-03-27T15:28:51.935Z,9.60
2019-03-27T15:32:17.549Z,9.60
2019-03-27T15:35:44.491Z,9.60
2019-03-27T15:39:10.234Z,9.50
2019-03-27T15:42:34.775Z,9.30
2019-03-27T15:46:05.639Z,9.30
2019-03-27T15:49:31.395Z,9.30
2019-03-27T15:52:55.441Z,9.20
2019-03-27T15:56:19.883Z,8.90
2019-03-27T15:59:44.264Z,8.80
2019-03-27T16:03:08.529Z,8.60
2019-03-27T16:06:32.640Z,8.40
2019-03-27T16:09:56.505Z,8.30
2019-03-27T16:13:20.371Z,8.10
2019-03-27T16:17:01.218Z,8.00
2019-03-27T16:20:11.054Z,7.90
2019-03-27T16:23:35.124Z,7.70
2019-03-27T16:27:04.780Z,7.60
2019-03-27T16:30:25.037Z,7.30
2019-03-27T16:33:49.325Z,7.20
2019-03-27T16:37:13.164Z,7.00
2019-03-27T16:40:44.968Z,6.80
2019-03-27T16:44:08.706Z,6.70
2019-03-27T16:47:32.829Z,6.50
2019-03-27T16:50:56.626Z,6.30
2019-03-27T16:54:20.478Z,6.10
2019-03-27T16:57:44.337Z,5.90
2019-03-27T17:01:12.265Z,5.70
2019-03-27T17:04:36.223Z,5.50
2019-03-27T17:08:00.758Z,5.40
2019-03-27T17:11:24.622Z,5.10
2019-03-27T17:14:48.481Z,4.90
2019-03-27T17:18:12.352Z,4.70
2019-03-27T17:21:36.242Z,4.50
2019-03-27T17:25:00.143Z,4.30
2019-03-27T17:28:24.421Z,4.20
2019-03-27T17:31:49.760Z,3.90
2019-03-27T17:35:14.221Z,3.80
2019-03-27T17:38:38.118Z,3.60
2019-03-27T17:42:03.584Z,3.50
2019-03-27T17:45:27.501Z,3.40
2019-03-27T17:48:52.020Z,3.40
2019-03-27T17:52:16.160Z,3.40
2019-03-27T17:55:40.018Z,3.40
2019-03-27T17:59:04.077Z,3.30
2019-03-27T18:02:28.122Z,3.20
2019-03-27T18:05:52.010Z,3.20
2019-03-27T18:09:16.043Z,3.20
2019-03-27T18:12:39.998Z,3.20
2019-03-27T18:16:03.967Z,3.20
2019-03-27T18:19:27.861Z,3.10
2019-03-27T18:22:51.917Z,3.00
2019-03-27T18:26:16.098Z,3.00
2019-03-27T18:29:40.077Z,2.90
2019-03-27T18:33:04.122Z,2.90
2019-03-27T18:36:28.051Z,2.90
2019-03-27T18:39:54.780Z,2.80
2019-03-27T18:43:18.670Z,2.70
2019-03-27T18:46:43.163Z,2.60
2019-03-27T18:50:10.849Z,2.50
2019-03-27T18:53:36.055Z,2.50
2019-03-27T18:57:00.308Z,2.50
2019-03-27T19:00:24.721Z,2.50
2019-03-27T19:03:50.305Z,2.50
2019-03-27T19:07:14.464Z,2.40
2019-03-27T19:10:38.532Z,2.40
2019-03-27T19:14:02.406Z,2.40
2019-03-27T19:17:26.339Z,2.30
2019-03-27T19:20:50.191Z,2.10
2019-03-27T19:24:16.687Z,1.90
2019-03-27T19:27:39.488Z,1.70
2019-03-27T19:31:03.448Z,1.60
2019-03-27T19:34:27.459Z,1.60
2019-03-27T19:37:52.032Z,1.70
2019-03-27T19:41:15.935Z,1.70
2019-03-27T19:44:41.919Z,1.60
2019-03-27T19:48:05.981Z,1.60
2019-03-27T19:51:30.063Z,1.50
2019-03-27T19:54:54.475Z,1.60
2019-03-27T19:58:18.651Z,1.50
2019-03-27T20:01:42.668Z,1.50
2019-03-27T20:05:08.119Z,1.40
2019-03-27T20:08:31.862Z,1.40
2019-03-27T20:11:55.952Z,1.30
2019-03-27T20:15:19.751Z,1.40
2019-03-27T20:18:43.654Z,1.30
2019-03-27T20:22:07.651Z,1.30
2019-03-27T20:25:31.413Z,1.30
2019-03-27T20:28:55.676Z,1.30
2019-03-27T20:32:19.533Z,1.30
2019-03-27T20:35:44.024Z,1.30
2019-03-27T20:39:08.796Z,1.30
2019-03-27T20:42:32.619Z,1.10
2019-03-27T20:45:56.527Z,1.00
2019-03-27T20:49:20.504Z,1.00
2019-03-27T20:52:44.399Z,1.10
2019-03-27T20:56:08.171Z,1.30
2019-03-27T20:59:32.223Z,1.50
2019-03-27T21:02:56.330Z,1.80
2019-03-27T21:06:20.637Z,1.90
2019-03-27T21:09:45.001Z,2.10
2019-03-27T21:13:09.477Z,2.20
2019-03-27T21:16:33.509Z,2.30
2019-03-27T21:19:57.556Z,2.30
2019-03-27T21:23:21.683Z,2.30
2019-03-27T21:26:45.618Z,2.40
2019-03-27T21:30:11.099Z,2.30
2019-03-27T21:33:35.981Z,2.30
2019-03-27T21:37:00.069Z,2.30
2019-03-27T21:40:24.673Z,2.30
2019-03-27T21:43:48.650Z,2.30
2019-03-27T21:47:14.363Z,2.30
2019-03-27T21:50:38.376Z,2.30
2019-03-27T21:54:02.231Z,2.30
2019-03-27T21:57:26.066Z,2.20
2019-03-27T22:00:51.435Z,2.20
2019-03-27T22:04:15.245Z,2.10
2019-03-27T22:07:39.608Z,2.00
2019-03-27T22:11:04.579Z,2.00
2019-03-27T22:14:28.932Z,2.00
2019-03-27T22:17:53.552Z,2.00
2019-03-27T22:21:17.373Z,2.10
2019-03-27T22:24:41.726Z,2.10
2019-03-27T22:28:07.563Z,2.20
2019-03-27T22:31:31.171Z,2.20
2019-03-27T22:34:54.940Z,2.30
2019-03-27T22:38:18.753Z,2.40
2019-03-27T22:41:42.674Z,2.50
2019-03-27T22:45:07.277Z,2.50
2019-03-27T22:48:31.095Z,2.50
2019-03-27T22:51:56.083Z,2.50
2019-03-27T22:55:19.976Z,2.60
2019-03-27T22:58:43.793Z,2.50
2019-03-27T23:02:08.507Z,2.50
2019-03-27T23:05:32.245Z,2.50
2019-03-27T23:08:56.206Z,2.50
2019-03-27T23:12:20.084Z,2.50
2019-03-27T23:15:43.967Z,2.60
2019-03-27T23:19:07.814Z,2.70
2019-03-27T23:22:31.643Z,2.80
2019-03-27T23:26:02.875Z,2.90
2019-03-27T23:29:21.260Z,3.10
2019-03-27T23:32:45.016Z,3.20
2019-03-27T23:36:08.955Z,3.40
2019-03-27T23:39:32.788Z,3.50
2019-03-27T23:42:56.579Z,3.60
2019-03-27T23:46:20.383Z,3.60
2019-03-27T23:49:44.279Z,3.70
2019-03-27T23:53:08.201Z,3.80
2019-03-27T23:56:32.042Z,3.80
2019-03-27T23:59:55.824Z,3.80
